Time;durP1;ratioP1;P1;durP2;ratioP2;P2;SDS_P1;SDS_P2;PMS_P1;PMS_P2;Temp;Humidity;BMP_temperature;BMP_pressure;BME280_temperature;BME280_humidity;BME280_pressure;Samples;Min_cycle;Max_cycle;Signal;HPM_P1;HPM_P2
2024/01/05 00:00:14;;;;;;;0.40;0.40;;;;;;;6.75;100.00;97993.44;5096309;28;20123;-60
2024/01/05 00:02:41;;;;;;;0.40;0.40;;;;;;;6.75;100.00;97983.56;5093542;28;20039;-60
2024/01/05 00:05:09;;;;;;;0.40;0.40;;;;;;;6.72;100.00;97983.28;5093618;28;20075;-60
2024/01/05 00:07:36;;;;;;;0.40;0.40;;;;;;;6.75;100.00;97974.78;5093946;28;20791;-60
2024/01/05 00:10:06;;;;;;;0.40;0.40;;;;;;;6.80;100.00;97969.53;5094890;28;20051;-60
2024/01/05 00:12:33;;;;;;;0.30;0.30;;;;;;;6.77;100.00;97965.50;5097803;28;20040;-60
2024/01/05 00:15:00;;;;;;;0.40;0.40;;;;;;;6.73;100.00;97955.59;5093874;28;20047;-60
2024/01/05 00:17:28;;;;;;;0.40;0.40;;;;;;;6.76;100.00;97944.44;5087990;28;20055;-60
2024/01/05 00:19:55;;;;;;;0.30;0.30;;;;;;;6.77;100.00;97943.38;5094245;28;20051;-60
2024/01/05 00:22:23;;;;;;;0.40;0.40;;;;;;;6.70;100.00;97946.22;5072850;28;20059;-59
2024/01/05 00:24:50;;;;;;;0.40;0.40;;;;;;;6.66;100.00;97942.44;5091675;28;20506;-60
2024/01/05 00:27:18;;;;;;;0.30;0.30;;;;;;;6.69;100.00;97929.47;5092941;28;20052;-59
2024/01/05 00:29:45;;;;;;;0.35;0.35;;;;;;;6.69;100.00;97926.78;5065176;28;20068;-60
2024/01/05 00:32:12;;;;;;;0.40;0.40;;;;;;;6.73;100.00;97921.75;5097631;28;20078;-60
2024/01/05 00:34:39;;;;;;;0.40;0.40;;;;;;;6.62;100.00;97915.53;5069511;28;20044;-60
2024/01/05 00:37:06;;;;;;;0.40;0.40;;;;;;;6.66;100.00;97918.47;5093315;28;20767;-60
2024/01/05 00:39:34;;;;;;;0.40;0.40;;;;;;;6.62;100.00;97912.06;5096547;28;20040;-60
2024/01/05 00:42:01;;;;;;;0.30;0.30;;;;;;;6.60;100.00;97906.97;5097257;28;20032;-60
2024/01/05 00:44:32;;;;;;;0.40;0.40;;;;;;;6.57;100.00;97907.47;5096950;28;20047;-60
2024/01/05 00:46:59;;;;;;;0.43;0.43;;;;;;;6.57;100.00;97904.81;5094275;28;20046;-60
2024/01/05 00:49:26;;;;;;;0.43;0.43;;;;;;;6.56;100.00;97900.53;5096562;28;20043;-59
2024/01/05 00:51:53;;;;;;;0.28;0.28;;;;;;;6.52;100.00;97907.44;5092815;28;20044;-60
2024/01/05 00:54:20;;;;;;;0.30;0.30;;;;;;;6.49;100.00;97902.59;5091006;28;20071;-61
2024/01/05 00:56:47;;;;;;;0.43;0.43;;;;;;;6.36;100.00;97902.94;5092702;28;20142;-61
2024/01/05 00:59:14;;;;;;;0.40;0.40;;;;;;;6.30;100.00;97904.75;5092563;28;20040;-58
2024/01/05 01:01:42;;;;;;;0.40;0.40;;;;;;;6.31;100.00;97901.03;5092502;28;20073;-60
2024/01/05 01:04:10;;;;;;;0.30;0.30;;;;;;;6.35;100.00;97886.19;5096926;28;20032;-60
2024/01/05 01:06:37;;;;;;;0.30;0.30;;;;;;;6.34;100.00;97889.91;5075572;28;20046;-60
2024/01/05 01:09:04;;;;;;;0.30;0.30;;;;;;;6.39;100.00;97886.47;5094430;28;20036;-61
2024/01/05 01:11:31;;;;;;;0.30;0.30;;;;;;;6.35;100.00;97888.06;5075760;28;20614;-61
2024/01/05 01:13:58;;;;;;;0.30;0.30;;;;;;;6.33;100.00;97887.50;5076389;28;20167;-58
2024/01/05 01:16:25;;;;;;;0.30;0.30;;;;;;;6.32;100.00;97880.56;5090914;28;20815;-61
2024/01/05 01:18:54;;;;;;;0.40;0.40;;;;;;;6.29;100.00;97881.88;5098896;28;20052;-60
2024/01/05 01:21:20;;;;;;;0.40;0.40;;;;;;;6.27;100.00;97870.66;5099447;28;20486;-60
2024/01/05 01:23:47;;;;;;;0.30;0.30;;;;;;;6.25;100.00;97873.56;5096328;28;20089;-61
2024/01/05 01:26:14;;;;;;;0.40;0.40;;;;;;;6.20;100.00;97872.69;5093165;28;20039;-60
2024/01/05 01:28:42;;;;;;;0.30;0.30;;;;;;;6.28;100.00;97868.81;5095437;28;20054;-60
2024/01/05 01:31:09;;;;;;;0.40;0.40;;;;;;;6.23;100.00;97866.88;5097321;28;20040;-60
2024/01/05 01:33:36;;;;;;;0.40;0.40;;;;;;;6.13;100.00;97867.56;5090121;28;20446;-60
2024/01/05 01:36:06;;;;;;;0.40;0.40;;;;;;;6.22;100.00;97862.63;5099765;28;20047;-60
2024/01/05 01:38:33;;;;;;;0.30;0.30;;;;;;;6.13;100.00;97859.56;5096365;28;20051;-60
2024/01/05 01:41:00;;;;;;;0.40;0.40;;;;;;;6.09;100.00;97857.66;5100670;28;20051;-59
2024/01/05 01:43:27;;;;;;;0.40;0.40;;;;;;;6.10;100.00;97851.28;5073406;28;20040;-60
2024/01/05 01:45:55;;;;;;;0.60;0.60;;;;;;;6.05;100.00;97852.03;5095306;28;20131;-60
2024/01/05 01:48:22;;;;;;;0.50;0.50;;;;;;;6.00;100.00;97855.41;5101565;28;20523;-60
2024/01/05 01:50:49;;;;;;;0.45;0.45;;;;;;;5.99;100.00;97856.47;5085549;28;20035;-60
2024/01/05 01:53:18;;;;;;;0.40;0.40;;;;;;;6.00;100.00;97851.97;5093772;28;20322;-60
2024/01/05 01:55:45;;;;;;;0.52;0.52;;;;;;;6.04;100.00;97851.22;5092076;28;20130;-60
2024/01/05 01:58:12;;;;;;;0.50;0.50;;;;;;;6.03;100.00;97840.81;5098788;28;20112;-60
2024/01/05 02:00:39;;;;;;;0.40;0.40;;;;;;;6.01;100.00;97842.91;5098211;28;20040;-60
2024/01/05 02:03:06;;;;;;;0.40;0.40;;;;;;;5.98;100.00;97838.09;5093856;28;20039;-60
2024/01/05 02:05:34;;;;;;;0.40;0.40;;;;;;;5.93;100.00;97835.34;5093337;28;20050;-60
2024/01/05 02:08:01;;;;;;;0.47;0.47;;;;;;;5.93;100.00;97835.34;5099711;28;20118;-60
2024/01/05 02:10:29;;;;;;;0.40;0.40;;;;;;;5.87;100.00;97831.81;5093137;28;20101;-60
2024/01/05 02:12:57;;;;;;;0.40;0.40;;;;;;;5.82;100.00;97829.91;5073945;28;20255;-60
2024/01/05 02:15:24;;;;;;;0.35;0.35;;;;;;;5.79;100.00;97825.06;5094265;28;20047;-59
2024/01/05 02:18:12;;;;;;;0.40;0.40;;;;;;;5.81;100.00;97820.28;5085453;28;20079;-60
2024/01/05 02:20:39;;;;;;;0.40;0.40;;;;;;;5.82;100.00;97819.25;5092751;28;20506;-60
2024/01/05 02:23:09;;;;;;;0.32;0.32;;;;;;;5.91;100.00;97821.50;5095511;28;20199;-59
2024/01/05 02:25:37;;;;;;;0.40;0.40;;;;;;;5.90;100.00;97827.88;5091582;28;20431;-60
2024/01/05 02:28:07;;;;;;;0.50;0.50;;;;;;;5.89;100.00;97823.59;5092918;28;20070;-60
2024/01/05 02:30:34;;;;;;;0.40;0.40;;;;;;;5.82;100.00;97815.81;5091072;28;20043;-60
2024/01/05 02:33:01;;;;;;;0.50;0.50;;;;;;;5.78;100.00;97812.81;5079406;28;20187;-60
2024/01/05 02:35:28;;;;;;;0.40;0.40;;;;;;;5.91;100.00;97810.84;5081901;28;20048;-60
2024/01/05 02:37:55;;;;;;;0.47;0.47;;;;;;;5.86;100.00;97800.94;5091814;28;20054;-60
2024/01/05 02:40:22;;;;;;;0.40;0.40;;;;;;;5.85;100.00;97804.66;5101218;28;20040;-60
2024/01/05 02:42:51;;;;;;;0.30;0.30;;;;;;;5.84;100.00;97803.88;5093231;28;20040;-60
2024/01/05 02:45:20;;;;;;;0.40;0.40;;;;;;;5.83;100.00;97796.13;5071276;28;20048;-60
2024/01/05 02:47:48;;;;;;;0.52;0.52;;;;;;;5.70;100.00;97802.59;5096255;28;20120;-60
2024/01/05 02:50:16;;;;;;;0.40;0.40;;;;;;;5.69;100.00;97800.19;5097172;28;20104;-59
2024/01/05 02:52:43;;;;;;;0.30;0.30;;;;;;;5.66;100.00;97793.50;5089498;28;20044;-59
2024/01/05 02:55:10;;;;;;;0.40;0.40;;;;;;;5.65;100.00;97791.91;5082552;28;20043;-59
2024/01/05 02:57:38;;;;;;;0.40;0.40;;;;;;;5.70;100.00;97789.31;5093715;28;20039;-59
2024/01/05 03:00:10;;;;;;;0.30;0.30;;;;;;;5.72;100.00;97789.88;5100500;28;20507;-59
2024/01/05 03:02:38;;;;;;;0.50;0.50;;;;;;;5.70;100.00;97786.66;5085860;28;20039;-59
2024/01/05 03:05:06;;;;;;;0.40;0.40;;;;;;;5.67;100.00;97794.34;5090052;28;20040;-59
2024/01/05 03:07:34;;;;;;;0.30;0.30;;;;;;;5.71;100.00;97790.13;5094790;28;20059;-60
2024/01/05 03:10:01;;;;;;;0.22;0.22;;;;;;;5.78;100.00;97782.78;5089386;28;20431;-59
2024/01/05 03:12:28;;;;;;;0.50;0.50;;;;;;;5.73;100.00;97772.88;5071581;28;20120;-59
2024/01/05 03:14:55;;;;;;;0.38;0.38;;;;;;;5.77;100.00;97768.69;5093704;28;20032;-59
2024/01/05 03:17:23;;;;;;;0.50;0.50;;;;;;;5.86;100.00;97778.88;5098029;28;20459;-59
2024/01/05 03:19:50;;;;;;;0.40;0.40;;;;;;;5.90;100.00;97772.03;5097108;28;20077;-59
2024/01/05 03:22:17;;;;;;;0.40;0.40;;;;;;;5.96;100.00;97763.06;5090964;28;20043;-60
2024/01/05 03:24:44;;;;;;;0.40;0.40;;;;;;;6.01;100.00;97757.81;5089921;28;20735;-59
2024/01/05 03:27:13;;;;;;;0.30;0.30;;;;;;;6.05;100.00;97756.28;5099902;28;20039;-59
2024/01/05 03:29:40;;;;;;;0.40;0.40;;;;;;;6.14;100.00;97760.09;5093966;28;20042;-59
2024/01/05 03:32:07;;;;;;;0.50;0.50;;;;;;;6.15;100.00;97759.03;5088120;28;20488;-59
2024/01/05 03:34:36;;;;;;;0.40;0.40;;;;;;;6.24;100.00;97754.06;5088483;28;20544;-60
2024/01/05 03:37:03;;;;;;;0.47;0.47;;;;;;;6.29;100.00;97755.97;5095386;28;20071;-60
2024/01/05 03:39:30;;;;;;;0.30;0.30;;;;;;;6.19;100.00;97754.00;5097250;28;20036;-59
2024/01/05 03:41:57;;;;;;;0.40;0.40;;;;;;;6.22;100.00;97759.66;5075927;28;20048;-59
2024/01/05 03:44:24;;;;;;;0.40;0.40;;;;;;;6.18;100.00;97763.84;5096548;28;20075;-59
2024/01/05 03:46:51;;;;;;;0.40;0.40;;;;;;;6.26;100.00;97760.78;5091606;28;20062;-59
2024/01/05 03:49:18;;;;;;;0.50;0.50;;;;;;;6.20;100.00;97755.63;5093089;28;20055;-59
2024/01/05 03:51:47;;;;;;;0.40;0.40;;;;;;;6.16;100.00;97752.66;5096226;28;20066;-59
2024/01/05 03:54:14;;;;;;;0.40;0.40;;;;;;;6.10;100.00;97737.72;5095978;28;20733;-59
2024/01/05 03:56:41;;;;;;;0.40;0.40;;;;;;;6.14;100.00;97741.50;5096263;28;20044;-59
2024/01/05 03:59:09;;;;;;;0.40;0.40;;;;;;;6.16;100.00;97736.69;5088148;28;20414;-60
2024/01/05 04:01:43;;;;;;;0.40;0.40;;;;;;;6.22;100.00;97722.41;5097612;28;20046;-59
2024/01/05 04:04:10;;;;;;;0.38;0.38;;;;;;;6.19;100.00;97724.75;5089816;28;20556;-59
2024/01/05 04:06:37;;;;;;;0.40;0.40;;;;;;;6.14;100.00;97719.38;5092020;28;20043;-59
2024/01/05 04:09:09;;;;;;;0.30;0.30;;;;;;;6.12;100.00;97709.00;5097414;28;20055;-59
2024/01/05 04:11:37;;;;;;;0.40;0.40;;;;;;;6.09;100.00;97696.22;5067910;28;20062;-59
2024/01/05 04:14:04;;;;;;;0.40;0.40;;;;;;;6.14;100.00;97687.47;5051542;28;20049;-59
2024/01/05 04:16:31;;;;;;;0.52;0.52;;;;;;;6.12;100.00;97678.94;5053254;28;20036;-59
2024/01/05 04:18:58;;;;;;;0.40;0.40;;;;;;;6.09;100.00;97693.56;5052032;28;20431;-59
2024/01/05 04:21:25;;;;;;;0.45;0.45;;;;;;;6.12;100.00;97694.91;5055846;28;20051;-59
2024/01/05 04:23:54;;;;;;;0.40;0.40;;;;;;;6.15;100.00;97689.88;5057132;28;20053;-59
2024/01/05 04:26:22;;;;;;;0.40;0.40;;;;;;;6.13;100.00;97686.66;5052596;28;20102;-59
2024/01/05 04:28:49;;;;;;;0.57;0.57;;;;;;;6.18;100.00;97697.34;5049003;28;20045;-59
2024/01/05 04:31:19;;;;;;;0.47;0.47;;;;;;;6.25;100.00;97686.50;5051562;28;20060;-59
2024/01/05 04:33:47;;;;;;;0.47;0.47;;;;;;;6.23;100.00;97681.44;5058332;28;20064;-59
2024/01/05 04:36:15;;;;;;;0.50;0.50;;;;;;;6.35;100.00;97672.50;5057552;28;20130;-59
2024/01/05 04:38:43;;;;;;;0.30;0.30;;;;;;;6.29;100.00;97669.00;5057638;28;20053;-59
2024/01/05 04:41:10;;;;;;;0.35;0.35;;;;;;;6.32;100.00;97667.69;5058292;28;20124;-59
2024/01/05 04:43:38;;;;;;;0.40;0.40;;;;;;;6.36;100.00;97663.44;5054280;28;20561;-59
2024/01/05 04:46:06;;;;;;;0.30;0.30;;;;;;;6.35;100.00;97656.53;5058607;28;20125;-59
2024/01/05 04:48:33;;;;;;;0.50;0.50;;;;;;;6.40;100.00;97657.38;5053528;28;20044;-59
2024/01/05 04:51:00;;;;;;;0.30;0.30;;;;;;;6.41;100.00;97668.81;5053333;28;20070;-59
2024/01/05 04:53:27;;;;;;;0.40;0.40;;;;;;;6.37;100.00;97676.50;5058166;28;20048;-59
2024/01/05 04:55:54;;;;;;;0.40;0.40;;;;;;;6.46;100.00;97684.81;5060892;28;20052;-59
2024/01/05 04:58:21;;;;;;;0.30;0.30;;;;;;;6.58;100.00;97680.13;5052885;28;20059;-59
2024/01/05 05:00:49;;;;;;;0.40;0.40;;;;;;;6.64;100.00;97675.66;5054296;28;20048;-59
2024/01/05 05:03:16;;;;;;;0.30;0.30;;;;;;;6.65;100.00;97671.94;5056347;28;20145;-59
2024/01/05 05:05:44;;;;;;;0.30;0.30;;;;;;;6.65;100.00;97667.41;5058442;28;20040;-59
2024/01/05 05:08:13;;;;;;;0.38;0.38;;;;;;;6.77;100.00;97671.78;5052475;28;20139;-61
2024/01/05 05:10:40;;;;;;;0.30;0.30;;;;;;;6.77;100.00;97677.09;5054410;28;20060;-60
2024/01/05 05:13:07;;;;;;;0.30;0.30;;;;;;;6.68;100.00;97672.22;5091852;28;20578;-60
2024/01/05 05:15:34;;;;;;;0.40;0.40;;;;;;;6.63;100.00;97677.50;5097373;28;20568;-61
2024/01/05 05:18:03;;;;;;;0.40;0.40;;;;;;;6.77;100.00;97671.78;5097793;28;20048;-60
2024/01/05 05:20:31;;;;;;;0.45;0.45;;;;;;;6.76;100.00;97672.81;5081072;28;20047;-60
2024/01/05 05:22:58;;;;;;;0.28;0.28;;;;;;;6.87;100.00;97690.50;5078537;28;20044;-61
2024/01/05 05:25:25;;;;;;;0.38;0.38;;;;;;;6.91;100.00;97687.06;5093922;28;20040;-60
2024/01/05 05:27:52;;;;;;;0.40;0.40;;;;;;;6.89;100.00;97688.38;5095735;28;20125;-60
2024/01/05 05:30:19;;;;;;;0.40;0.40;;;;;;;6.89;100.00;97683.84;5060054;28;20055;-60
2024/01/05 05:32:46;;;;;;;0.40;0.40;;;;;;;6.86;100.00;97684.38;5079111;28;20053;-60
2024/01/05 05:35:14;;;;;;;0.40;0.40;;;;;;;6.81;100.00;97683.50;5094685;28;20039;-60
2024/01/05 05:37:41;;;;;;;0.28;0.28;;;;;;;6.91;100.00;97696.88;5090685;28;20122;-61
2024/01/05 05:40:10;;;;;;;0.30;0.30;;;;;;;6.97;100.00;97695.88;5096165;28;20119;-60
2024/01/05 05:42:37;;;;;;;0.40;0.40;;;;;;;6.89;100.00;97691.84;5093885;28;20051;-60
2024/01/05 05:45:04;;;;;;;0.30;0.30;;;;;;;6.98;100.00;97692.16;5095116;28;20044;-60
2024/01/05 05:47:32;;;;;;;0.40;0.40;;;;;;;7.01;100.00;97694.28;5098850;28;20047;-60
2024/01/05 05:50:00;;;;;;;0.30;0.30;;;;;;;7.02;100.00;97693.25;5097014;28;20066;-60
2024/01/05 05:52:28;;;;;;;0.40;0.40;;;;;;;7.02;100.00;97700.44;5095574;28;20671;-60
2024/01/05 05:54:55;;;;;;;0.30;0.30;;;;;;;7.06;100.00;97705.00;5092800;28;20120;-60
2024/01/05 05:57:22;;;;;;;0.30;0.30;;;;;;;7.05;100.00;97700.72;5098063;28;20040;-60
2024/01/05 05:59:51;;;;;;;0.30;0.30;;;;;;;7.07;100.00;97703.13;5091140;28;20141;-60
2024/01/05 06:02:18;;;;;;;0.40;0.40;;;;;;;7.11;100.00;97706.88;5096293;28;20074;-60
2024/01/05 06:04:45;;;;;;;0.35;0.35;;;;;;;7.05;100.00;97698.06;5094285;28;20441;-60
2024/01/05 06:07:12;;;;;;;0.40;0.40;;;;;;;7.05;100.00;97695.38;5094860;28;20235;-60
2024/01/05 06:09:40;;;;;;;0.30;0.30;;;;;;;7.06;100.00;97688.19;5098368;28;20394;-60
2024/01/05 06:12:09;;;;;;;0.32;0.32;;;;;;;7.10;100.00;97698.09;5100243;28;20206;-61
2024/01/05 06:14:38;;;;;;;0.30;0.30;;;;;;;7.17;100.00;97700.53;5090663;28;20105;-61
2024/01/05 06:17:05;;;;;;;0.30;0.30;;;;;;;7.09;100.00;97699.16;5091467;28;20529;-60
2024/01/05 06:19:32;;;;;;;0.30;0.30;;;;;;;7.12;100.00;97693.31;5098637;28;20054;-60
2024/01/05 06:22:02;;;;;;;0.40;0.40;;;;;;;7.19;100.00;97697.59;5078293;28;20509;-60
2024/01/05 06:24:29;;;;;;;0.30;0.30;;;;;;;7.19;100.00;97700.25;5074583;28;20055;-60
2024/01/05 06:26:57;;;;;;;0.40;0.40;;;;;;;7.19;100.00;97693.09;5089414;28;20570;-61
2024/01/05 06:29:25;;;;;;;0.30;0.30;;;;;;;7.26;100.00;97703.50;5098531;28;20058;-60
2024/01/05 06:31:52;;;;;;;0.40;0.40;;;;;;;7.25;100.00;97691.25;5097883;28;20798;-60
2024/01/05 06:34:19;;;;;;;0.30;0.30;;;;;;;7.25;100.00;97693.91;5091835;28;20036;-59
2024/01/05 06:36:46;;;;;;;0.22;0.22;;;;;;;7.23;100.00;97696.03;5093071;28;20067;-60
2024/01/05 06:39:13;;;;;;;0.40;0.40;;;;;;;7.16;100.00;97701.56;5070144;28;20059;-60
2024/01/05 06:41:40;;;;;;;0.40;0.40;;;;;;;7.23;100.00;97698.69;5093207;28;20035;-60
2024/01/05 06:44:10;;;;;;;0.40;0.40;;;;;;;7.15;100.00;97697.31;5096771;28;20040;-60
2024/01/05 06:46:39;;;;;;;0.38;0.38;;;;;;;7.25;100.00;97693.91;5092669;28;20043;-60
2024/01/05 06:49:06;;;;;;;0.30;0.30;;;;;;;7.27;100.00;97694.47;5091318;28;21789;-60
2024/01/05 06:51:38;;;;;;;0.30;0.30;;;;;;;7.23;100.00;97696.81;5095601;28;20039;-60
2024/01/05 06:54:05;;;;;;;0.40;0.40;;;;;;;7.12;100.00;97693.31;5095392;28;20058;-60
2024/01/05 06:56:33;;;;;;;0.40;0.40;;;;;;;7.11;100.00;97686.38;5086275;28;20559;-60
2024/01/05 06:59:00;;;;;;;0.32;0.32;;;;;;;7.22;100.00;97686.44;5085824;28;20044;-60
2024/01/05 07:01:29;;;;;;;0.30;0.30;;;;;;;7.15;100.00;97683.19;5091005;28;20093;-60
2024/01/05 07:03:58;;;;;;;0.30;0.30;;;;;;;7.05;100.00;97671.41;5086959;28;20695;-60
2024/01/05 07:06:26;;;;;;;0.40;0.40;;;;;;;7.00;100.00;97682.03;5095255;28;20075;-60
2024/01/05 07:08:53;;;;;;;0.40;0.40;;;;;;;7.11;100.00;97681.06;5089913;28;20052;-60
2024/01/05 07:11:21;;;;;;;0.30;0.30;;;;;;;7.09;100.00;97685.84;5078510;28;20056;-60
2024/01/05 07:13:48;;;;;;;0.30;0.30;;;;;;;7.10;100.00;97682.09;5070646;28;20055;-61
2024/01/05 07:16:16;;;;;;;0.40;0.40;;;;;;;7.09;100.00;97683.16;5092833;28;20483;-58
2024/01/05 07:18:46;;;;;;;0.40;0.40;;;;;;;7.10;100.00;97684.75;5095529;28;20040;-59
2024/01/05 07:21:13;;;;;;;0.30;0.30;;;;;;;7.09;100.00;97683.16;5093044;28;20067;-61
2024/01/05 07:23:40;;;;;;;0.30;0.30;;;;;;;7.10;100.00;97676.78;5093142;28;20126;-61
2024/01/05 07:26:07;;;;;;;0.30;0.30;;;;;;;7.25;100.00;97667.25;5095314;28;20062;-59
2024/01/05 07:28:34;;;;;;;0.30;0.30;;;;;;;7.11;100.00;97659.75;5092454;28;20052;-59
2024/01/05 07:31:03;;;;;;;0.30;0.30;;;;;;;7.00;100.00;97674.06;5092332;28;20036;-59
2024/01/05 07:33:34;;;;;;;0.25;0.25;;;;;;;7.04;100.00;97675.16;5095137;28;20054;-61
2024/01/05 07:36:06;;;;;;;0.30;0.30;;;;;;;7.06;100.00;97683.69;5090542;28;20044;-59
2024/01/05 07:38:34;;;;;;;0.30;0.30;;;;;;;7.03;100.00;97673.53;5093919;28;20446;-59
2024/01/05 07:41:02;;;;;;;0.20;0.20;;;;;;;7.05;100.00;97691.94;5067631;28;20685;-59
2024/01/05 07:43:29;;;;;;;0.30;0.30;;;;;;;7.06;100.00;97680.19;5100049;28;20048;-59
2024/01/05 07:45:56;;;;;;;0.45;0.45;;;;;;;7.07;100.00;97684.50;5093647;28;20501;-59
2024/01/05 07:48:25;;;;;;;0.30;0.30;;;;;;;7.16;100.00;97676.81;5093329;28;20105;-59
2024/01/05 07:50:52;;;;;;;0.30;0.30;;;;;;;7.22;100.00;97681.13;5071834;28;20124;-59
2024/01/05 07:53:20;;;;;;;0.30;0.30;;;;;;;7.22;100.00;97675.78;5097619;28;20572;-61
2024/01/05 07:55:48;;;;;;;0.30;0.30;;;;;;;7.19;100.00;97678.94;5095261;28;20122;-59
2024/01/05 07:58:15;;;;;;;0.40;0.40;;;;;;;7.27;100.00;97679.28;5084203;28;20047;-59
2024/01/05 08:00:42;;;;;;;0.40;0.40;;;;;;;7.30;100.00;97673.41;5076471;28;20510;-59
2024/01/05 08:03:10;;;;;;;0.40;0.40;;;;;;;7.23;100.00;97667.50;5089068;28;20035;-59
2024/01/05 08:05:38;;;;;;;0.35;0.35;;;;;;;7.24;100.00;97673.63;5089076;28;20585;-59
2024/01/05 08:08:06;;;;;;;0.38;0.38;;;;;;;7.28;100.00;97680.88;5101006;28;20144;-61
2024/01/05 08:10:35;;;;;;;0.38;0.38;;;;;;;7.46;100.00;97676.16;5077435;28;20089;-59
2024/01/05 08:13:02;;;;;;;0.40;0.40;;;;;;;7.34;100.00;97676.38;5094605;28;20442;-63
2024/01/05 08:15:29;;;;;;;0.40;0.40;;;;;;;7.31;100.00;97672.38;5087839;28;20064;-59
2024/01/05 08:18:06;;;;;;;0.40;0.40;;;;;;;7.32;100.00;97670.50;5088221;28;20040;-59
2024/01/05 08:20:34;;;;;;;0.40;0.40;;;;;;;7.39;100.00;97671.06;5070632;28;20048;-59
2024/01/05 08:23:01;;;;;;;0.40;0.40;;;;;;;7.44;100.00;97664.94;5089570;28;20706;-61
2024/01/05 08:25:28;;;;;;;0.40;0.40;;;;;;;7.48;100.00;97674.81;5096049;28;20573;-59
2024/01/05 08:27:57;;;;;;;0.35;0.35;;;;;;;7.44;100.00;97676.44;5074508;28;20043;-59
2024/01/05 08:30:24;;;;;;;0.30;0.30;;;;;;;7.47;100.00;97667.09;5091759;28;20054;-59
2024/01/05 08:32:54;;;;;;;0.30;0.30;;;;;;;7.51;100.00;97671.66;5093530;28;20125;-59
2024/01/05 08:35:22;;;;;;;0.40;0.40;;;;;;;7.48;100.00;97663.38;5092321;28;20434;-60
2024/01/05 08:37:49;;;;;;;0.30;0.30;;;;;;;7.46;100.00;97666.31;5094164;28;20046;-60
2024/01/05 08:40:17;;;;;;;0.40;0.40;;;;;;;7.65;100.00;97677.31;5074929;28;20592;-59
2024/01/05 08:42:45;;;;;;;0.30;0.30;;;;;;;7.54;100.00;97681.00;5070508;28;20533;-59
2024/01/05 08:45:16;;;;;;;0.40;0.40;;;;;;;7.47;100.00;97686.56;5091325;28;20044;-60
2024/01/05 08:48:05;;;;;;;0.40;0.40;;;;;;;7.52;100.00;97675.91;5070828;28;20145;-59
2024/01/05 08:50:32;;;;;;;0.30;0.30;;;;;;;7.53;100.00;97688.19;5087634;28;20448;-59
2024/01/05 08:52:59;;;;;;;0.30;0.30;;;;;;;7.51;100.00;97685.00;5098297;28;20045;-60
2024/01/05 08:55:26;;;;;;;0.40;0.40;;;;;;;7.46;100.00;97689.47;5097279;28;20039;-59
2024/01/05 08:57:53;;;;;;;0.30;0.30;;;;;;;7.44;100.00;97689.75;5094755;28;20043;-59
2024/01/05 09:00:22;;;;;;;0.30;0.30;;;;;;;7.52;100.00;97691.91;5084078;28;20040;-59
2024/01/05 09:02:54;;;;;;;0.47;0.47;;;;;;;7.41;100.00;97706.25;5088404;28;20883;-59
2024/01/05 09:05:21;;;;;;;0.40;0.40;;;;;;;7.49;100.00;97702.31;5073569;28;20395;-59
2024/01/05 09:07:48;;;;;;;0.47;0.47;;;;;;;7.98;100.00;97709.94;5089929;28;20039;-59
2024/01/05 09:10:15;;;;;;;0.40;0.40;;;;;;;9.07;97.44;97704.47;5097914;28;20048;-59
2024/01/05 09:12:43;;;;;;;0.20;0.20;;;;;;;8.42;100.00;97707.69;5097649;28;20044;-60
2024/01/05 09:15:10;;;;;;;0.30;0.30;;;;;;;8.20;100.00;97699.06;5098984;28;20035;-59
2024/01/05 09:17:44;;;;;;;0.20;0.20;;;;;;;7.88;100.00;97689.38;5097796;28;20104;-59
2024/01/05 09:20:13;;;;;;;0.30;0.30;;;;;;;8.04;100.00;97706.25;5076246;28;20039;-59
2024/01/05 09:22:40;;;;;;;0.50;0.50;;;;;;;8.40;100.00;97706.34;5086585;28;20122;-59
2024/01/05 09:25:09;;;;;;;0.40;0.40;;;;;;;9.76;98.09;97710.16;5087298;28;20429;-59
2024/01/05 09:27:39;;;;;;;0.40;0.40;;;;;;;10.86;89.87;97708.97;5089822;28;20052;-59
2024/01/05 09:30:07;;;;;;;0.20;0.20;;;;;;;10.10;89.94;97712.94;5094361;28;20093;-59
2024/01/05 09:32:36;;;;;;;0.30;0.30;;;;;;;9.56;92.69;97714.53;5094269;28;20051;-59
2024/01/05 09:35:08;;;;;;;0.25;0.25;;;;;;;8.87;95.45;97707.97;5072057;28;21758;-59
2024/01/05 09:37:36;;;;;;;0.30;0.30;;;;;;;8.87;93.46;97713.31;5089836;28;20055;-59
2024/01/05 09:40:24;;;;;;;0.30;0.30;;;;;;;8.83;94.66;97721.03;5096705;28;20130;-59
2024/01/05 09:43:12;;;;;;;0.40;0.40;;;;;;;8.94;92.21;97726.41;5076866;28;20048;-59
2024/01/05 09:45:59;;;;;;;0.30;0.30;;;;;;;8.56;93.25;97725.84;5076250;28;20047;-59
2024/01/05 09:48:46;;;;;;;0.20;0.20;;;;;;;8.66;93.41;97728.50;5079134;28;20050;-59
2024/01/05 09:51:34;;;;;;;0.30;0.30;;;;;;;9.04;90.33;97729.06;5083316;28;20045;-59
2024/01/05 09:54:21;;;;;;;0.30;0.30;;;;;;;8.99;91.40;97729.06;5079187;28;20417;-59
2024/01/05 09:57:08;;;;;;;0.38;0.38;;;;;;;9.90;82.52;97730.69;5075881;28;20051;-59
2024/01/05 09:59:55;;;;;;;0.30;0.30;;;;;;;9.33;84.70;97734.63;5072903;28;20054;-59
2024/01/05 10:02:44;;;;;;;0.20;0.20;;;;;;;8.90;85.02;97755.50;5066367;28;20040;-59
2024/01/05 10:05:32;;;;;;;0.20;0.20;;;;;;;8.43;86.08;97743.97;5079046;28;20056;-59
2024/01/05 10:08:21;;;;;;;0.20;0.20;;;;;;;8.24;86.41;97750.88;5081936;28;20736;-59
2024/01/05 10:11:08;;;;;;;0.30;0.30;;;;;;;7.94;84.32;97749.69;5069620;28;20455;-59
2024/01/05 10:14:00;;;;;;;0.40;0.40;;;;;;;7.84;84.86;97747.00;5078568;28;20039;-59
2024/01/05 10:16:47;;;;;;;0.35;0.35;;;;;;;7.92;85.70;97733.16;5079446;28;20047;-60
2024/01/05 10:19:35;;;;;;;0.30;0.30;;;;;;;8.06;84.13;97738.00;5076256;28;20048;-59
2024/01/05 10:22:22;;;;;;;0.20;0.20;;;;;;;8.16;84.03;97746.03;5068882;28;20098;-59
2024/01/05 10:25:17;;;;;;;0.40;0.40;;;;;;;9.23;79.35;97734.63;5075572;28;20054;-59
2024/01/05 10:28:19;;;;;;;0.30;0.30;;;;;;;8.66;81.46;97733.84;5091023;28;20036;-59
2024/01/05 10:31:11;;;;;;;0.40;0.40;;;;;;;9.28;80.97;97751.50;5076371;28;20044;-59
2024/01/05 10:34:00;;;;;;;0.30;0.30;;;;;;;8.77;82.61;97742.69;5077505;28;20137;-59
2024/01/05 10:36:48;;;;;;;0.20;0.20;;;;;;;8.54;83.71;97741.34;5073006;28;20401;-60
2024/01/05 10:39:35;;;;;;;0.47;0.47;;;;;;;8.78;82.07;97736.28;5062447;28;20173;-59
2024/01/05 10:42:25;;;;;;;0.30;0.30;;;;;;;8.95;81.39;97744.03;5079684;28;20101;-59
2024/01/05 10:45:12;;;;;;;0.30;0.30;;;;;;;8.87;81.81;97739.22;5075321;28;20050;-60
2024/01/05 10:47:59;;;;;;;0.30;0.30;;;;;;;8.68;84.12;97741.63;5073964;28;20361;-60
2024/01/05 10:50:47;;;;;;;0.30;0.30;;;;;;;9.46;79.09;97741.28;5075294;28;20047;-59
2024/01/05 10:53:34;;;;;;;0.40;0.40;;;;;;;10.02;76.81;97735.72;5065131;28;20039;-59
2024/01/05 10:56:22;;;;;;;0.30;0.30;;;;;;;9.26;78.30;97744.78;5072553;28;20099;-59
2024/01/05 10:59:13;;;;;;;0.20;0.20;;;;;;;9.70;79.08;97734.25;5079298;28;20328;-59
2024/01/05 11:02:00;;;;;;;0.20;0.20;;;;;;;9.19;80.73;97739.72;5071560;28;20078;-59
2024/01/05 11:04:49;;;;;;;0.30;0.30;;;;;;;8.68;83.94;97726.38;5089712;28;20051;-60
2024/01/05 11:07:36;;;;;;;0.20;0.20;;;;;;;8.57;83.52;97732.81;5079090;28;20066;-59
2024/01/05 11:10:28;;;;;;;0.28;0.28;;;;;;;8.47;84.62;97735.47;5069690;28;20364;-59
2024/01/05 11:13:34;;;;;;;0.30;0.30;;;;;;;8.47;84.42;97740.81;5073107;28;20040;-59
2024/01/05 11:16:41;;;;;;;0.22;0.22;;;;;;;8.21;85.35;97756.72;5075671;28;20052;-60
2024/01/05 11:19:51;;;;;;;0.20;0.20;;;;;;;8.23;85.97;97764.47;5079287;28;20071;-59
2024/01/05 11:22:39;;;;;;;0.30;0.30;;;;;;;8.04;85.64;97780.13;5076550;28;20059;-59
2024/01/05 11:25:26;;;;;;;0.25;0.25;;;;;;;7.91;87.42;97798.25;5075699;28;20044;-59
2024/01/05 11:28:32;;;;;;;0.30;0.30;;;;;;;7.77;85.81;97773.09;5077233;28;20058;-60
2024/01/05 11:31:51;;;;;;;0.43;0.43;;;;;;;7.88;84.10;97780.06;5059715;28;20135;-59
2024/01/05 11:34:39;;;;;;;0.30;0.30;;;;;;;7.90;83.19;97772.63;5074900;28;20198;-59
2024/01/05 11:37:28;;;;;;;0.30;0.30;;;;;;;7.59;81.78;97762.84;5075624;28;20051;-59
2024/01/05 11:40:27;;;;;;;0.40;0.40;;;;;;;7.69;81.60;97758.41;5072971;28;20860;-59
2024/01/05 11:43:37;;;;;;;0.32;0.32;;;;;;;8.18;80.02;97771.38;5075998;28;21861;-60
2024/01/05 11:46:51;;;;;;;0.40;0.40;;;;;;;8.57;76.85;97775.53;5082510;28;20451;-59
2024/01/05 11:49:39;;;;;;;0.22;0.22;;;;;;;8.59;76.93;97763.50;5074941;28;20133;-59
2024/01/05 11:52:26;;;;;;;0.30;0.30;;;;;;;8.42;74.87;97758.41;5077469;28;20059;-59
2024/01/05 11:55:16;;;;;;;0.25;0.25;;;;;;;8.71;73.94;97763.25;5079741;28;20070;-59